Time;durP1;ratioP1;P1;durP2;ratioP2;P2;SDS_P1;SDS_P2;PMS_P1;PMS_P2;Temp;Humidity;BMP_temperature;BMP_pressure;BME280_temperature;BME280_humidity;BME280_pressure;Samples;Min_cycle;Max_cycle;Signal;HPM_P1;HPM_P2
2022/03/20 00:00:26;;;;;;;34.20;19.60;;;;;;;3.01;32.56;102999.48;107645;1270;138397;-76
2022/03/20 00:03:14;;;;;;;33.80;19.00;;;;;;;3.02;32.36;103001.45;107795;1271;95687;-76
2022/03/20 00:05:49;;;;;;;32.80;19.30;;;;;;;3.05;32.20;103000.17;107620;1270;137582;-76
2022/03/20 00:08:21;;;;;;;30.70;18.60;;;;;;;3.07;32.19;102998.71;107781;1271;108905;-76
2022/03/20 00:10:57;;;;;;;35.10;19.80;;;;;;;3.08;32.00;103000.48;107647;1271;138286;-76
2022/03/20 00:13:30;;;;;;;35.10;18.80;;;;;;;3.09;31.79;103004.30;107765;1271;96022;-78
2022/03/20 00:16:03;;;;;;;32.90;20.00;;;;;;;3.10;31.73;103003.84;107810;1271;96072;-76
2022/03/20 00:18:36;;;;;;;33.00;19.30;;;;;;;3.11;31.62;103005.93;107334;1270;137621;-75
2022/03/20 00:21:11;;;;;;;38.20;20.50;;;;;;;3.10;31.52;103003.34;107744;1271;108830;-76
2022/03/20 00:23:45;;;;;;;35.90;19.90;;;;;;;3.10;31.41;102999.38;107650;1270;137961;-78
2022/03/20 00:26:19;;;;;;;33.00;20.00;;;;;;;3.09;31.39;102997.62;107780;1271;96348;-78
2022/03/20 00:28:50;;;;;;;33.50;20.40;;;;;;;3.08;31.37;102993.06;107645;1271;137966;-77
2022/03/20 00:31:25;;;;;;;36.40;21.00;;;;;;;3.05;31.32;102992.79;107772;1271;112414;-78
2022/03/20 00:33:57;;;;;;;32.10;19.90;;;;;;;3.02;31.28;102993.70;107785;1271;108214;-76
2022/03/20 00:36:31;;;;;;;38.40;22.30;;;;;;;3.01;31.17;102995.37;107651;1271;138176;-77
2022/03/20 00:39:05;;;;;;;33.00;20.20;;;;;;;2.99;31.20;102996.67;107788;1271;96243;-76
2022/03/20 00:41:37;;;;;;;37.10;21.20;;;;;;;2.97;31.17;102996.08;107662;1271;138466;-76
2022/03/20 00:44:09;;;;;;;33.80;20.50;;;;;;;2.95;31.04;102996.69;107770;1271;111785;-76
2022/03/20 00:46:41;;;;;;;37.70;20.90;;;;;;;2.94;31.03;102998.86;107650;1271;138014;-76
2022/03/20 00:49:14;;;;;;;33.00;20.60;;;;;;;2.92;31.06;102997.59;107765;1270;107842;-76
2022/03/20 00:51:46;;;;;;;38.10;19.90;;;;;;;2.92;30.98;103000.31;107786;1270;95986;-76
2022/03/20 00:54:18;;;;;;;33.80;20.60;;;;;;;2.90;30.84;103001.25;107673;1271;138512;-76
2022/03/20 00:56:50;;;;;;;38.20;21.30;;;;;;;2.88;30.86;102999.96;107768;1271;110355;-76
2022/03/20 00:59:22;;;;;;;35.00;20.80;;;;;;;2.85;30.76;103001.02;107673;1270;137853;-77
2022/03/20 01:01:55;;;;;;;40.50;21.20;;;;;;;2.83;30.85;102998.02;107771;1270;108818;-77
2022/03/20 01:04:27;;;;;;;37.90;21.40;;;;;;;2.81;30.86;103000.88;107629;1270;137913;-77
2022/03/20 01:07:00;;;;;;;35.40;21.60;;;;;;;2.80;30.98;102995.48;107765;1271;96013;-77
2022/03/20 01:09:32;;;;;;;35.90;22.60;;;;;;;2.79;30.99;102996.80;107764;1271;112096;-77
2022/03/20 01:12:08;;;;;;;42.10;23.20;;;;;;;2.78;31.04;103003.98;107659;1271;137908;-77
2022/03/20 01:14:41;;;;;;;37.70;23.20;;;;;;;2.75;31.11;103004.72;107733;1271;107963;-76
2022/03/20 01:17:13;;;;;;;41.20;24.20;;;;;;;2.71;31.23;103011.78;107641;1271;138545;-77
2022/03/20 01:19:46;;;;;;;42.10;24.10;;;;;;;2.68;31.31;103011.95;107748;1271;96245;-77
2022/03/20 01:22:18;;;;;;;41.00;24.90;;;;;;;2.64;31.23;103010.75;107677;1271;138413;-77
2022/03/20 01:24:50;;;;;;;41.60;24.50;;;;;;;2.59;31.33;103009.86;107744;1271;108885;-79
2022/03/20 01:27:22;;;;;;;40.40;24.30;;;;;;;2.55;31.32;103007.60;107783;1271;107548;-78
2022/03/20 01:29:54;;;;;;;42.10;24.50;;;;;;;2.50;31.46;103011.34;107632;1271;137853;-78
2022/03/20 01:32:28;;;;;;;42.40;24.80;;;;;;;2.48;31.60;103012.43;107770;1271;96244;-78
2022/03/20 01:35:00;;;;;;;43.20;25.70;;;;;;;2.44;31.68;103008.16;107637;1271;137650;-77
2022/03/20 01:37:32;;;;;;;43.50;24.30;;;;;;;2.40;31.83;103007.98;107762;1271;107818;-77
2022/03/20 01:40:05;;;;;;;44.90;25.20;;;;;;;2.36;32.00;103003.00;107732;1271;109196;-77
2022/03/20 01:42:39;;;;;;;41.40;25.00;;;;;;;2.32;31.95;103004.67;107630;1271;137959;-77
2022/03/20 01:45:18;;;;;;;41.90;24.00;;;;;;;2.28;32.03;103001.57;107767;1271;96128;-76
2022/03/20 01:47:51;;;;;;;40.40;24.30;;;;;;;2.24;31.97;103002.27;107653;1271;137617;-77
2022/03/20 01:50:25;;;;;;;42.90;24.10;;;;;;;2.21;32.03;103002.95;107748;1271;107902;-77
2022/03/20 01:52:57;;;;;;;45.20;24.50;;;;;;;2.18;32.13;103005.40;107617;1271;139179;-77
2022/03/20 01:55:30;;;;;;;45.50;25.40;;;;;;;2.15;32.21;103006.50;107734;1271;96262;-77
2022/03/20 01:58:02;;;;;;;47.50;27.80;;;;;;;2.13;32.43;103002.27;107747;1271;96278;-76
2022/03/20 02:03:28;;;;;;;54.20;28.90;;;;;;;2.03;32.88;103005.27;105523;1263;104949;-77
2022/03/20 02:06:01;;;;;;;51.00;29.80;;;;;;;1.99;33.11;103007.45;107325;1275;137897;-77
2022/03/20 02:08:36;;;;;;;50.10;27.80;;;;;;;1.94;33.21;103007.70;107443;1275;95798;-77
2022/03/20 02:11:08;;;;;;;50.70;28.00;;;;;;;1.89;33.12;103005.75;107258;1276;137764;-77
2022/03/20 02:13:41;;;;;;;46.80;26.50;;;;;;;1.86;33.37;103005.13;107447;1276;112496;-77
2022/03/20 02:16:13;;;;;;;47.30;26.60;;;;;;;1.84;33.10;103004.33;107485;1276;108940;-77
2022/03/20 02:18:46;;;;;;;52.30;28.10;;;;;;;1.81;33.25;103002.29;107310;1276;137927;-78
2022/03/20 02:21:35;;;;;;;51.40;28.20;;;;;;;1.78;33.35;103001.45;107428;1276;96289;-78
2022/03/20 02:24:25;;;;;;;50.70;29.70;;;;;;;1.75;33.63;102997.38;107360;1275;138902;-78
2022/03/20 02:27:06;;;;;;;48.50;28.00;;;;;;;1.70;33.59;102995.27;107318;1276;112512;-78
2022/03/20 02:29:39;;;;;;;47.60;27.30;;;;;;;1.67;33.67;102998.20;107357;1276;138179;-77
2022/03/20 02:32:13;;;;;;;51.00;29.80;;;;;;;1.64;33.45;102995.31;107438;1275;107725;-78
2022/03/20 02:34:47;;;;;;;48.70;29.10;;;;;;;1.61;33.73;102991.04;107329;1275;137934;-77
2022/03/20 02:37:20;;;;;;;51.60;28.50;;;;;;;1.59;33.82;102989.20;107481;1276;96253;-77
2022/03/20 02:39:55;;;;;;;53.20;29.90;;;;;;;1.55;33.84;102986.98;107450;1276;112819;-75
2022/03/20 02:42:28;;;;;;;48.40;27.60;;;;;;;1.51;33.88;102990.40;107373;1276;137879;-75
2022/03/20 02:45:03;;;;;;;47.30;28.70;;;;;;;1.49;34.09;102989.09;107453;1275;109916;-76
2022/03/20 02:47:37;;;;;;;47.90;28.00;;;;;;;1.45;34.09;102989.60;107345;1276;138159;-75
2022/03/20 02:50:11;;;;;;;48.10;28.60;;;;;;;1.42;34.03;102988.23;107465;1276;96097;-76
2022/03/20 02:52:48;;;;;;;50.90;27.30;;;;;;;1.39;34.05;102995.78;107334;1276;137863;-75
2022/03/20 02:55:22;;;;;;;53.60;27.90;;;;;;;1.36;34.32;103000.09;107333;1276;107897;-76
2022/03/20 02:57:57;;;;;;;46.90;27.50;;;;;;;1.33;34.00;102999.98;107426;1276;108880;-76
2022/03/20 03:00:31;;;;;;;46.40;27.60;;;;;;;1.31;34.29;102996.27;107345;1276;138459;-76
2022/03/20 03:03:05;;;;;;;51.30;29.00;;;;;;;1.29;34.57;102999.73;107437;1276;95891;-76
2022/03/20 03:05:38;;;;;;;51.60;28.60;;;;;;;1.25;34.73;103000.59;107328;1276;138067;-76
2022/03/20 03:11:00;;;;;;;50.40;29.30;;;;;;;1.19;34.81;102999.60;107261;1276;138721;-76
2022/03/20 03:13:37;;;;;;;51.10;29.10;;;;;;;1.17;35.30;102998.98;107369;1276;96135;-76
2022/03/20 03:16:16;;;;;;;49.90;27.40;;;;;;;1.16;35.18;102998.77;107429;1275;96227;-76
2022/03/20 03:18:49;;;;;;;51.50;27.10;;;;;;;1.16;34.74;103001.54;107291;1276;138228;-76
2022/03/20 03:21:21;;;;;;;57.70;34.10;;;;;;;1.16;35.06;103006.00;107407;1276;109296;-76
2022/03/20 03:23:55;;;;;;;61.90;36.40;;;;;;;1.17;35.47;103008.07;107295;1276;139296;-77
2022/03/20 03:26:27;;;;;;;67.80;38.30;;;;;;;1.12;36.15;103010.75;107422;1276;96229;-76
2022/03/20 03:28:59;;;;;;;70.80;38.60;;;;;;;1.04;36.39;103010.66;107359;1276;138958;-76
2022/03/20 03:31:31;;;;;;;73.60;40.10;;;;;;;0.98;36.50;103010.52;107413;1276;111391;-76
2022/03/20 03:36:53;;;;;;;80.50;42.90;;;;;;;0.84;37.04;103001.59;107316;1276;137917;-76
2022/03/20 03:39:25;;;;;;;78.70;44.10;;;;;;;0.77;37.59;102998.50;107393;1275;96030;-76
2022/03/20 03:41:57;;;;;;;78.00;44.90;;;;;;;0.72;37.64;102998.88;107357;1276;138608;-77
2022/03/20 03:44:29;;;;;;;82.60;44.20;;;;;;;0.68;37.80;103003.12;107458;1276;109868;-77
2022/03/20 03:47:01;;;;;;;80.10;46.80;;;;;;;0.62;37.76;103005.75;107286;1276;139854;-77
2022/03/20 03:49:33;;;;;;;78.90;42.70;;;;;;;0.57;38.41;103002.10;107398;1276;107770;-77
2022/03/20 03:52:06;;;;;;;74.60;39.90;;;;;;;0.52;38.33;102998.54;107361;1276;96143;-76
2022/03/20 03:54:38;;;;;;;72.80;39.40;;;;;;;0.48;38.42;102998.52;107314;1276;137779;-77
2022/03/20 03:57:10;;;;;;;68.70;37.30;;;;;;;0.44;38.64;103000.00;107449;1275;112415;-76
2022/03/20 03:59:42;;;;;;;68.20;38.00;;;;;;;0.40;38.06;103001.50;107370;1276;138163;-77
2022/03/20 04:02:14;;;;;;;67.30;37.00;;;;;;;0.36;38.19;103000.73;107459;1276;106722;-76
2022/03/20 04:04:47;;;;;;;68.40;37.00;;;;;;;0.33;38.45;103001.60;107285;1276;138172;-76
2022/03/20 04:07:21;;;;;;;67.30;39.00;;;;;;;0.31;38.49;103006.31;107474;1276;96077;-77
2022/03/20 04:09:53;;;;;;;67.30;37.10;;;;;;;0.30;38.60;103011.04;107462;1276;111867;-77
2022/03/20 04:12:25;;;;;;;68.70;35.80;;;;;;;0.30;38.67;103014.48;107305;1276;139271;-77
2022/03/20 04:15:02;;;;;;;70.30;38.50;;;;;;;0.32;38.60;103012.50;107417;1276;107844;-76
2022/03/20 04:17:32;;;;;;;;;;;;;;;0.31;39.08;103011.44;107344;1276;139043;-77
2022/03/20 04:20:06;;;;;;;73.90;40.40;;;;;;;0.30;39.10;103011.39;107453;1276;96107;-77
2022/03/20 04:22:40;;;;;;;75.90;40.80;;;;;;;0.29;39.39;103015.80;107346;1276;139097;-77
2022/03/20 04:25:13;;;;;;;80.60;42.70;;;;;;;0.27;39.29;103015.17;107482;1275;107711;-77
2022/03/20 04:27:45;;;;;;;80.40;41.70;;;;;;;0.24;39.63;103013.67;107390;1276;107984;-77
2022/03/20 04:30:17;;;;;;;80.10;41.30;;;;;;;0.22;39.69;103010.81;107306;1276;139114;-77
2022/03/20 04:32:49;;;;;;;73.10;40.90;;;;;;;0.20;39.76;103014.79;107408;1276;96130;-77
2022/03/20 04:35:23;;;;;;;62.30;36.40;;;;;;;0.18;39.54;103015.67;107276;1276;139823;-77
2022/03/20 04:37:57;;;;;;;68.80;35.60;;;;;;;0.15;39.11;103015.39;107407;1276;107904;-77
2022/03/20 04:40:29;;;;;;;54.80;29.90;;;;;;;0.14;38.80;103013.61;107446;1276;109630;-76
2022/03/20 04:43:02;;;;;;;55.50;30.30;;;;;;;0.15;38.17;103015.05;107229;1276;138908;-76
2022/03/20 04:45:35;;;;;;;52.40;28.70;;;;;;;0.18;38.00;103016.92;107476;1275;95895;-76
2022/03/20 04:59:26;;;;;;;50.50;26.40;;;;;;;0.54;37.11;103030.52;107261;1276;139789;-76
2022/03/20 05:02:02;;;;;;;46.50;25.90;;;;;;;0.63;36.93;103025.32;107441;1276;112544;-76
2022/03/20 05:04:35;;;;;;;47.20;26.90;;;;;;;0.74;36.84;103030.88;107146;1276;322454;-77
2022/03/20 05:07:07;;;;;;;48.60;25.50;;;;;;;0.87;36.78;103030.67;107326;1275;137687;-76
2022/03/20 05:15:18;;;;;;;48.20;26.50;;;;;;;1.60;35.77;103029.08;107426;1275;112548;-77
2022/03/20 05:17:50;;;;;;;52.30;28.40;;;;;;;1.92;35.71;103030.63;107304;1276;137931;-77
2022/03/20 05:20:23;;;;;;;48.40;27.40;;;;;;;2.27;35.37;103033.33;107426;1276;108900;-77
2022/03/20 05:22:57;;;;;;;42.60;25.60;;;;;;;2.77;34.68;103036.10;107277;1276;138344;-77
2022/03/20 05:25:29;;;;;;;44.60;26.80;;;;;;;3.44;33.73;103036.23;107416;1276;95823;-78
2022/03/20 05:28:02;;;;;;;40.30;26.10;;;;;;;4.17;32.79;103037.77;107338;1276;112396;-78
2022/03/20 05:30:34;;;;;;;40.40;27.10;;;;;;;5.00;32.05;103034.48;107300;1275;137968;-78
2022/03/20 05:33:08;;;;;;;44.40;26.90;;;;;;;6.15;31.46;103037.77;107402;1276;107885;-78
2022/03/20 05:35:42;;;;;;;42.00;27.30;;;;;;;7.82;30.51;103037.31;107308;1275;139408;-78
2022/03/20 05:38:14;;;;;;;37.00;24.60;;;;;;;9.72;29.02;103032.92;107400;1276;96012;-78
2022/03/20 05:40:47;;;;;;;38.10;23.10;;;;;;;11.42;26.92;103026.55;107311;1276;140172;-77
2022/03/20 05:43:20;;;;;;;36.20;23.40;;;;;;;12.67;24.91;103023.67;107380;1276;109098;-78
2022/03/20 05:45:52;;;;;;;31.90;21.60;;;;;;;13.86;24.00;103023.84;107339;1276;108987;-78
2022/03/20 05:48:24;;;;;;;32.90;21.30;;;;;;;14.76;22.67;103020.23;107240;1276;139477;-78
2022/03/20 05:50:56;;;;;;;32.50;22.30;;;;;;;15.59;21.39;103019.13;107426;1276;96303;-77
2022/03/20 05:53:29;;;;;;;31.60;21.40;;;;;;;16.21;20.67;103016.39;107317;1276;139892;-76
2022/03/20 05:58:51;;;;;;;29.30;20.90;;;;;;;17.33;19.44;103016.27;107183;1276;138906;-76
2022/03/20 06:01:23;;;;;;;27.10;19.70;;;;;;;17.83;18.86;103018.24;107281;1276;96370;-76
2022/03/20 06:03:56;;;;;;;31.00;20.60;;;;;;;18.27;18.32;103021.80;107426;1276;96269;-77
2022/03/20 06:06:29;;;;;;;28.60;21.00;;;;;;;18.62;17.82;103023.71;107293;1276;140470;-76
2022/03/20 06:09:01;;;;;;;29.00;19.50;;;;;;;19.09;17.19;103026.17;107432;1276;107779;-76
2022/03/20 06:11:34;;;;;;;27.70;18.70;;;;;;;19.30;16.59;103026.74;107267;1276;138858;-76
2022/03/20 06:14:07;;;;;;;24.70;18.70;;;;;;;19.46;15.78;103030.61;107418;1276;96285;-77
2022/03/20 06:16:39;;;;;;;23.70;18.40;;;;;;;19.30;15.14;103032.05;107408;1276;97043;-76
2022/03/20 06:19:11;;;;;;;25.10;17.70;;;;;;;19.16;15.24;103029.53;107265;1276;138886;-76
2022/03/20 06:21:44;;;;;;;27.40;17.70;;;;;;;19.23;15.41;103030.98;107438;1275;108774;-76
2022/03/20 06:24:16;;;;;;;26.30;18.30;;;;;;;19.86;15.97;103028.84;107239;1276;140281;-76
2022/03/20 06:26:48;;;;;;;26.30;17.10;;;;;;;20.68;15.67;103031.48;107281;1278;96283;-75
2022/03/20 06:29:20;;;;;;;25.40;18.30;;;;;;;21.41;15.17;103028.45;107359;1276;139872;-76
2022/03/20 06:31:53;;;;;;;26.10;18.20;;;;;;;22.23;15.22;103026.45;107386;1276;111420;-77
2022/03/20 06:34:26;;;;;;;23.30;16.50;;;;;;;23.08;14.34;103021.94;106492;1276;109242;-78
2022/03/20 06:36:59;;;;;;;21.60;16.20;;;;;;;23.65;13.47;103024.20;105812;1276;139193;-76
2022/03/20 06:39:31;;;;;;;21.20;15.70;;;;;;;23.98;12.97;103032.15;105843;1276;97831;-76
2022/03/20 06:42:05;;;;;;;22.90;16.20;;;;;;;24.49;12.99;103032.70;105808;1276;137892;-76
2022/03/20 06:44:37;;;;;;;19.90;14.80;;;;;;;24.97;12.69;103029.34;107456;1276;111628;-76
2022/03/20 06:47:12;;;;;;;20.00;14.20;;;;;;;25.38;12.28;103033.21;107342;1276;138514;-76
2022/03/20 06:49:45;;;;;;;18.20;14.30;;;;;;;25.75;12.11;103031.69;107260;1277;107641;-76
2022/03/20 06:52:17;;;;;;;19.70;13.70;;;;;;;25.95;11.44;103032.95;107382;1276;96259;-77
2022/03/20 06:54:50;;;;;;;18.40;13.40;;;;;;;25.90;11.29;103033.38;107298;1276;139308;-77
2022/03/20 06:57:23;;;;;;;18.00;13.50;;;;;;;26.03;11.09;103035.59;107455;1276;111273;-77
2022/03/20 06:59:56;;;;;;;17.90;14.00;;;;;;;26.01;10.96;103033.88;107242;1277;138180;-76
2022/03/20 07:02:28;;;;;;;16.20;13.50;;;;;;;26.14;10.83;103044.61;107113;1278;106652;-77
2022/03/20 07:05:00;;;;;;;16.90;13.40;;;;;;;25.99;10.57;103042.92;106776;1276;138187;-77
2022/03/20 07:07:34;;;;;;;17.00;12.70;;;;;;;26.00;10.67;103044.27;105892;1276;97926;-76
2022/03/20 07:10:08;;;;;;;20.90;13.30;;;;;;;26.22;10.40;103042.56;107287;1278;112153;-75
2022/03/20 07:12:40;;;;;;;15.00;12.40;;;;;;;26.19;10.44;103050.17;107202;1276;141041;-77
2022/03/20 07:15:13;;;;;;;15.40;13.10;;;;;;;26.22;10.41;103048.06;107369;1276;107828;-78
2022/03/20 07:17:45;;;;;;;20.40;14.00;;;;;;;26.28;10.69;103042.73;107075;1278;139629;-78
2022/03/20 07:20:17;;;;;;;15.20;11.70;;;;;;;26.59;10.77;103039.66;107416;1276;96291;-77
2022/03/20 07:22:51;;;;;;;15.20;12.30;;;;;;;26.31;9.48;103046.70;107317;1276;138017;-76
2022/03/20 07:30:58;;;;;;;19.10;13.00;;;;;;;26.88;10.18;103038.38;106956;1279;138137;-77
2022/03/20 07:33:31;;;;;;;15.10;12.50;;;;;;;26.91;10.07;103036.38;107124;1279;96266;-77
2022/03/20 07:36:04;;;;;;;17.20;12.70;;;;;;;27.06;10.21;103030.02;106974;1279;138380;-78
2022/03/20 07:38:36;;;;;;;14.90;12.40;;;;;;;27.52;10.07;103030.17;107105;1279;109973;-79
2022/03/20 07:41:09;;;;;;;17.60;11.90;;;;;;;27.75;9.46;103029.00;106947;1279;139035;-78
2022/03/20 07:43:41;;;;;;;13.90;11.20;;;;;;;27.61;9.29;103025.70;106917;1281;96247;-77
2022/03/20 07:46:14;;;;;;;15.30;11.60;;;;;;;27.06;8.98;103030.55;107049;1279;96477;-78
2022/03/20 07:48:47;;;;;;;16.40;11.90;;;;;;;26.62;9.05;103029.85;107042;1279;138849;-78
2022/03/20 07:51:20;;;;;;;14.30;11.50;;;;;;;26.13;9.33;103031.11;107202;1279;107859;-78
2022/03/20 07:53:53;;;;;;;14.10;11.50;;;;;;;25.76;9.41;103032.16;107045;1279;138359;-77
2022/03/20 07:56:25;;;;;;;14.50;11.30;;;;;;;25.51;9.43;103025.58;107164;1279;96173;-76
2022/03/20 07:58:57;;;;;;;17.00;12.50;;;;;;;25.53;9.76;103028.85;106994;1279;138633;-75
2022/03/20 08:01:29;;;;;;;16.60;12.00;;;;;;;25.51;9.60;103029.52;107107;1279;111225;-76
2022/03/20 08:04:02;;;;;;;15.70;11.50;;;;;;;25.71;9.81;103024.77;107096;1279;108674;-74
2022/03/20 08:06:34;;;;;;;14.10;11.00;;;;;;;26.03;9.41;103030.95;107085;1276;138086;-78
2022/03/20 08:09:06;;;;;;;12.80;10.60;;;;;;;25.77;9.37;103030.34;107486;1275;96369;-79
2022/03/20 08:11:38;;;;;;;15.40;11.30;;;;;;;25.55;9.38;103039.79;107396;1276;137933;-78
2022/03/20 08:14:10;;;;;;;15.20;11.60;;;;;;;25.59;9.71;103036.07;107451;1276;112796;-78
2022/03/20 08:16:42;;;;;;;14.80;11.50;;;;;;;25.54;9.40;103038.05;107475;1276;108020;-76
2022/03/20 08:19:16;;;;;;;14.20;10.70;;;;;;;25.52;9.54;103037.98;107251;1276;137579;-77
2022/03/20 08:21:49;;;;;;;14.50;10.70;;;;;;;25.59;9.22;103037.98;107368;1276;95900;-77
2022/03/20 08:24:22;;;;;;;15.90;11.00;;;;;;;25.37;9.45;103036.48;107330;1276;139689;-77
2022/03/20 08:26:54;;;;;;;16.00;11.10;;;;;;;24.95;8.96;103034.97;107291;1276;112294;-77
2022/03/20 08:29:26;;;;;;;16.10;11.20;;;;;;;24.39;9.23;103032.98;105742;1276;138653;-77
2022/03/20 08:31:59;;;;;;;14.10;11.20;;;;;;;23.90;9.36;103038.72;105933;1276;107519;-77
2022/03/20 08:34:31;;;;;;;17.40;12.20;;;;;;;23.50;9.70;103036.70;107418;1276;96028;-77
2022/03/20 08:37:03;;;;;;;16.60;11.70;;;;;;;23.29;9.81;103036.89;107375;1276;139480;-77
2022/03/20 08:39:36;;;;;;;15.80;11.70;;;;;;;23.03;9.76;103039.58;107412;1276;112327;-77
2022/03/20 08:42:09;;;;;;;15.80;11.00;;;;;;;22.90;10.13;103038.84;107268;1276;139533;-78
2022/03/20 08:44:40;;;;;;;15.40;11.60;;;;;;;22.94;10.16;103044.18;107425;1276;107699;-77
2022/03/20 08:47:12;;;;;;;17.70;12.30;;;;;;;22.98;10.02;103040.29;107323;1276;139831;-76
2022/03/20 08:49:45;;;;;;;17.00;11.70;;;;;;;22.99;10.36;103035.09;107353;1276;96221;-77
2022/03/20 08:52:19;;;;;;;15.20;11.40;;;;;;;23.41;10.64;103028.05;107377;1277;113321;-76
2022/03/20 08:54:52;;;;;;;18.70;13.50;;;;;;;24.10;10.77;103033.58;107207;1278;138616;-78
2022/03/20 08:57:27;;;;;;;17.50;12.50;;;;;;;24.59;10.27;103031.52;107377;1276;106779;-77
2022/03/20 08:59:59;;;;;;;16.50;11.90;;;;;;;24.81;10.03;103031.05;107264;1276;138100;-78
2022/03/20 09:02:31;;;;;;;16.00;12.40;;;;;;;24.74;10.24;103027.95;107442;1276;96025;-77
2022/03/20 09:05:03;;;;;;;16.50;12.00;;;;;;;24.94;9.74;103030.54;107366;1276;138863;-77
2022/03/20 09:07:35;;;;;;;16.70;12.70;;;;;;;24.89;10.02;103029.73;107441;1276;107249;-78
2022/03/20 09:10:09;;;;;;;16.70;13.30;;;;;;;25.08;10.05;103027.23;107376;1276;106608;-78
2022/03/20 09:12:43;;;;;;;19.20;12.80;;;;;;;25.20;9.69;103028.55;107326;1276;138086;-78
2022/03/20 09:15:17;;;;;;;16.40;11.70;;;;;;;25.08;9.60;103021.52;107429;1276;96847;-78
2022/03/20 09:20:42;;;;;;;16.60;13.00;;;;;;;24.03;9.67;103027.13;107454;1276;106689;-78
2022/03/20 09:23:16;;;;;;;17.00;12.50;;;;;;;23.77;9.88;103022.95;107309;1276;138595;-78
2022/03/20 09:25:48;;;;;;;15.40;12.50;;;;;;;23.63;10.20;103024.48;107360;1276;95968;-78
2022/03/20 09:28:21;;;;;;;17.90;11.60;;;;;;;23.62;10.23;103021.12;107448;1276;96292;-78
2022/03/20 09:30:53;;;;;;;17.30;11.10;;;;;;;23.58;9.73;103026.63;107271;1277;137975;-78
2022/03/20 09:33:27;;;;;;;14.40;11.00;;;;;;;22.93;9.93;103026.26;107449;1276;106662;-79
2022/03/20 09:35:59;;;;;;;17.30;11.00;;;;;;;22.30;9.95;103030.12;107283;1276;138300;-78
2022/03/20 09:38:33;;;;;;;14.10;10.90;;;;;;;21.62;10.00;103025.64;107402;1276;96018;-77
2022/03/20 09:41:08;;;;;;;15.20;11.80;;;;;;;21.00;10.21;103020.94;107284;1276;138119;-77
2022/03/20 09:43:42;;;;;;;15.00;10.60;;;;;;;20.51;10.71;103023.85;107424;1276;112369;-78
2022/03/20 09:46:21;;;;;;;16.60;10.50;;;;;;;20.03;10.80;103022.56;107369;1277;108656;-78
2022/03/20 09:48:55;;;;;;;14.20;10.00;;;;;;;19.96;11.42;103020.45;107296;1276;138226;-76
2022/03/20 09:51:28;;;;;;;14.30;11.00;;;;;;;20.07;11.38;103020.67;107424;1276;96265;-76
2022/03/20 09:54:00;;;;;;;14.00;10.50;;;;;;;20.28;11.58;103020.46;107373;1276;138844;-76
2022/03/20 09:56:32;;;;;;;14.10;9.80;;;;;;;20.50;11.49;103014.54;107435;1276;113033;-76
2022/03/20 09:59:05;;;;;;;14.20;11.50;;;;;;;20.60;11.22;103006.79;107283;1276;138388;-76
2022/03/20 10:01:37;;;;;;;15.70;11.40;;;;;;;20.91;11.23;103012.22;107434;1276;107774;-77
2022/03/20 10:04:12;;;;;;;13.80;11.30;;;;;;;20.43;10.89;103019.66;107391;1276;96212;-76
2022/03/20 10:06:45;;;;;;;15.20;11.10;;;;;;;19.88;11.37;103016.27;107348;1276;138831;-75
2022/03/20 10:09:17;;;;;;;15.70;10.70;;;;;;;19.82;11.68;103013.97;107464;1275;111315;-76
2022/03/20 10:11:54;;;;;;;17.00;11.00;;;;;;;20.11;11.64;103009.98;107276;1276;138678;-77
2022/03/20 10:14:29;;;;;;;14.40;10.20;;;;;;;20.36;11.84;103003.78;107421;1276;107079;-77
2022/03/20 10:17:14;;;;;;;14.60;10.30;;;;;;;20.64;11.61;102997.31;107293;1276;138117;-77
2022/03/20 10:19:46;;;;;;;34.20;26.30;;;;;;;20.41;10.93;103003.66;107389;1276;97057;-76
2022/03/20 10:22:18;;;;;;;24.10;17.30;;;;;;;19.90;11.38;103005.27;107449;1275;111447;-76
2022/03/20 10:24:52;;;;;;;13.90;11.10;;;;;;;19.68;11.52;103007.81;107378;1276;138119;-76
2022/03/20 10:27:26;;;;;;;16.20;10.70;;;;;;;19.48;11.65;103003.19;107427;1276;107546;-78
2022/03/20 10:30:00;;;;;;;15.50;12.40;;;;;;;19.17;11.44;102996.36;107371;1276;138055;-77
2022/03/20 10:32:32;;;;;;;44.10;36.40;;;;;;;19.07;12.11;102990.08;107454;1276;96151;-76
2022/03/20 10:35:11;;;;;;;16.10;11.60;;;;;;;19.62;12.50;102988.19;107363;1276;138158;-76
2022/03/20 10:37:54;;;;;;;16.90;12.90;;;;;;;19.98;11.76;102990.73;107428;1276;107760;-76
2022/03/20 10:40:28;;;;;;;12.20;9.90;;;;;;;19.74;11.41;102995.80;107395;1276;108356;-75
2022/03/20 10:43:16;;;;;;;15.50;10.80;;;;;;;19.25;11.55;102987.53;107317;1276;138493;-77
2022/03/20 10:46:00;;;;;;;16.40;12.70;;;;;;;19.09;11.86;102986.17;107413;1276;95859;-76
2022/03/20 10:48:43;;;;;;;13.80;9.80;;;;;;;19.23;12.20;102983.17;107357;1276;138961;-77
2022/03/20 10:51:15;;;;;;;18.40;10.50;;;;;;;19.51;12.54;102983.55;107392;1277;108227;-77
2022/03/20 10:53:58;;;;;;;12.90;9.30;;;;;;;19.89;12.34;102986.77;107294;1276;139168;-77
2022/03/20 10:56:30;;;;;;;12.90;9.10;;;;;;;19.97;12.12;102989.03;107428;1276;96088;-76
2022/03/20 10:59:11;;;;;;;15.30;9.50;;;;;;;19.47;11.68;102984.67;107295;1276;138152;-76
2022/03/20 11:01:45;;;;;;;14.50;9.10;;;;;;;18.94;11.99;102984.59;107172;1276;111481;-77
2022/03/20 11:04:19;;;;;;;13.20;10.50;;;;;;;18.53;12.08;102986.73;105868;1277;108738;-75
2022/03/20 11:06:59;;;;;;;13.60;9.70;;;;;;;18.43;12.56;102980.94;107342;1276;138284;-75
2022/03/20 11:09:32;;;;;;;13.10;9.70;;;;;;;18.62;12.99;102980.02;107435;1276;96256;-77
2022/03/20 11:12:08;;;;;;;10.90;9.10;;;;;;;18.85;12.94;102975.47;107304;1276;138099;-76
2022/03/20 11:14:43;;;;;;;12.30;9.30;;;;;;;18.82;12.84;102966.53;107454;1276;111671;-74
2022/03/20 11:17:22;;;;;;;14.60;9.50;;;;;;;18.81;12.76;102956.85;107274;1277;139263;-76
2022/03/20 11:19:58;;;;;;;12.70;9.40;;;;;;;18.71;12.45;102949.33;107354;1277;107777;-76
2022/03/20 11:22:32;;;;;;;12.60;9.70;;;;;;;18.17;12.23;102955.61;107378;1276;96352;-77
2022/03/20 11:25:06;;;;;;;12.60;9.30;;;;;;;17.62;12.63;102956.84;107350;1277;138635;-76
2022/03/20 11:27:47;;;;;;;12.10;9.30;;;;;;;17.29;12.93;102950.76;107410;1276;111990;-76
2022/03/20 11:30:23;;;;;;;13.80;9.70;;;;;;;17.23;13.38;102943.63;107326;1276;138562;-76
2022/03/20 11:32:57;;;;;;;13.90;9.80;;;;;;;17.29;13.34;102941.60;107396;1277;107691;-77
2022/03/20 11:35:31;;;;;;;16.40;9.40;;;;;;;17.21;13.27;102942.45;107320;1276;138878;-76
2022/03/20 11:38:17;;;;;;;14.20;10.90;;;;;;;16.75;12.99;102938.77;107410;1276;96227;-76
2022/03/20 11:41:10;;;;;;;13.50;10.20;;;;;;;16.09;13.30;102943.36;107404;1276;111496;-77
2022/03/20 11:43:44;;;;;;;15.70;9.90;;;;;;;15.59;13.78;102933.02;107423;1276;107794;-77
2022/03/20 11:46:29;;;;;;;16.20;10.60;;;;;;;15.50;13.95;102931.17;107275;1277;108668;-77
2022/03/20 11:49:23;;;;;;;15.20;9.90;;;;;;;15.42;14.29;102926.85;107323;1276;138362;-76
2022/03/20 11:52:03;;;;;;;11.90;9.10;;;;;;;15.56;14.51;102918.84;107417;1276;95826;-76
2022/03/20 11:54:53;;;;;;;14.00;9.90;;;;;;;15.85;14.54;102914.33;107331;1276;140071;-76
2022/03/20 11:57:41;;;;;;;12.20;9.50;;;;;;;15.84;14.32;102912.60;107374;1277;108841;-76
2022/03/20 12:00:26;;;;;;;14.90;9.60;;;;;;;15.60;14.10;102906.88;107287;1277;138125;-76
2022/03/20 12:03:25;;;;;;;12.00;9.10;;;;;;;15.44;14.42;102904.05;107376;1277;96426;-75
2022/03/20 12:06:22;;;;;;;13.40;9.90;;;;;;;15.51;14.61;102900.47;107263;1276;139389;-76
2022/03/20 12:09:03;;;;;;;12.00;9.70;;;;;;;15.42;14.76;102900.55;107444;1276;111662;-76